Hampton Cove, Alabama
Current Conditions -  °F | °C
As of 5:53 PM on Saturday 25 Oct 2014 (Local Time) from KHSV Reporting Station
Broken Clouds Broken Clouds  
Wind Chill: 75°   Ceiling: 4700
Heat Index: 75°   Visibility: 10mi
Dew Point: 58°   Wind: 3mph
Humidity: 55%   Direction: 230°SW
Pressure: 30.03"   Gusts: NA
Location:  34.611°N, 86.4644°W
Report Text: KHSV 252253Z 23003KT 10SM BKN047 BKN060 24/14 A3003 RMK AO2 SLP164 T02390144
Loading
Personal Weather Stations






























Interactive Weather Map
Tropical Storm Tracking
New forecast layout! Learn more

10-Day Weather Forecast

Advertisements
Track Severe Weather on mobile